Data for 06/02/2009

Time Sea-Level Adjusted Pressure Absolute Pressure Temperature Relative Humidity Dew Point   
(mb) (inHg) (mb) (inHg) (C) (F) (%) (C) (F)
00:05 1025 30.27 854 25.22 7 44.6 72 2.3 36.2
00:10 1025 30.27 854 25.22 7 44.6 72 2.3 36.1
00:15 1025 30.27 854 25.22 7.1 44.7 71 2.2 36
00:20 1025 30.27 854 25.22 7.1 44.8 71 2.3 36.1
00:25 1025 30.27 854 25.22 7.1 44.7 71 2.2 36
00:30 1025 30.27 854 25.22 7.1 44.7 71 2.3 36.1
00:35 1025 30.27 854 25.22 7.1 44.8 71 2.3 36.1
00:40 1025 30.27 854 25.22 7.1 44.8 71 2.2 36
00:45 1025 30.27 854 25.22 7.2 44.9 71 2.2 36
00:50 1025 30.27 854 25.22 7.1 44.9 71 2.3 36.1
00:55 1025 30.27 854 25.22 7.1 44.9 71 2.2 36
01:00 1025 30.27 854 25.22 7.2 44.9 71 2.2 36
01:05 1025 30.27 854 25.22 7.1 44.8 71 2.3 36.1
01:10 1025 30.27 854 25.22 7.1 44.8 71 2.3 36.1
01:15 1025 30.27 854 25.22 7.1 44.7 71 2.2 36
01:20 1025 30.27 854 25.22 7.1 44.7 71 2.2 35.9
01:25 1025 30.27 854 25.22 7 44.7 71 2.2 36
01:30 1025 30.27 854 25.22 7 44.6 72 2.2 36
01:35 1025 30.27 854 25.22 7 44.7 72 2.3 36.1
01:40 1025 30.27 854 25.22 7 44.6 72 2.2 36
01:45 1025 30.27 854 25.22 7 44.6 71 2.2 35.9
01:50 1025 30.27 854 25.22 7 44.6 71 2.2 36
01:55 1025 30.27 854 25.22 7 44.6 72 2.3 36.1
02:00 1025 30.27 854 25.22 7 44.6 72 2.2 36
02:05 1025 30.27 854 25.22 6.9 44.4 72 2.2 36
02:10 1025 30.27 854 25.22 6.8 44.3 72 2.2 36
02:15 1025 30.27 854 25.22 6.8 44.2 73 2.2 36
02:20 1025 30.27 854 25.22 6.8 44.2 73 2.3 36.1
02:25 1025 30.27 854 25.22 6.7 44.1 73 2.2 36
02:30 1025 30.27 854 25.22 6.8 44.2 74 2.4 36.3
02:35 1025 30.27 854 25.22 6.7 44.1 74 2.4 36.3
02:40 1025 30.27 854 25.22 6.7 44 74 2.4 36.4
02:45 1025 30.27 854 25.22 6.6 43.9 74 2.4 36.2
02:50 1025 30.27 854 25.22 6.7 44 74 2.4 36.2
02:55 1025 30.27 854 25.22 6.6 44 74 2.3 36.2
03:00 1025 30.27 854 25.22 6.6 44 74 2.4 36.3
03:05 1025 30.27 854 25.22 6.6 44 74 2.3 36.2
03:10 1025 30.27 854 25.22 6.7 44 74 2.3 36.2
03:15 1025 30.27 854 25.22 6.7 44.1 74 2.3 36.2
03:20 1025 30.27 854 25.22 6.7 44.1 73 2.3 36.1
03:25 1025 30.27 854 25.22 6.7 44.1 73 2.3 36.1
03:30 1025 30.27 854 25.22 6.7 44.1 73 2.3 36.2
03:35 1025 30.27 854 25.22 6.7 44 74 2.4 36.3
03:40 1025 30.27 854 25.22 6.6 43.9 74 2.2 36
03:45 1025 30.27 854 25.22 6.5 43.8 74 2.3 36.1
03:50 1025 30.27 854 25.22 6.5 43.7 74 2.2 35.9
03:55 1025 30.27 854 25.22 6.5 43.7 73 2.1 35.8
04:00 1025 30.27 854 25.22 6.5 43.7 73 2 35.6
04:05 1025 30.27 854 25.22 6.4 43.6 73 2 35.6
04:10 1025 30.27 854 25.22 6.4 43.6 73 1.9 35.5
04:15 1025 30.27 854 25.22 6.4 43.6 72 1.8 35.3
04:20 1025 30.27 854 25.22 6.5 43.6 72 1.8 35.3
04:25 1025 30.27 854 25.22 6.5 43.6 72 1.8 35.3
04:30 1025 30.27 854 25.22 6.5 43.6 72 1.8 35.2
04:35 1025 30.27 854 25.22 6.5 43.7 72 1.7 35.1
04:40 1025 30.27 854 25.22 6.5 43.7 70 1.5 34.7
04:45 1025 30.27 854 25.22 6.5 43.7 71 1.6 34.8
04:50 1025 30.27 854 25.22 6.5 43.7 71 1.6 34.9
04:55 1025 30.27 854 25.22 6.4 43.6 71 1.7 35
05:00 1025 30.27 854 25.22 6.4 43.6 71 1.6 34.8
05:05 1025 30.27 854 25.22 6.4 43.6 72 1.7 35.1
05:10 1025 30.27 854 25.22 6.4 43.6 72 1.7 35
05:15 1025 30.27 854 25.22 6.5 43.6 72 1.7 35.1
05:20 1025 30.27 854 25.22 6.5 43.6 72 1.7 35.1
05:25 1025 30.27 854 25.22 6.4 43.6 72 1.8 35.3
05:30 1025 30.27 854 25.22 6.5 43.6 71 1.6 34.9
05:35 1025 30.27 854 25.22 6.5 43.6 71 1.7 35
05:40 1025 30.27 854 25.22 6.5 43.7 71 1.7 35
05:45 1025 30.27 854 25.22 6.5 43.7 72 1.7 35.1
05:50 1025 30.27 854 25.22 6.5 43.6 72 1.9 35.4
05:55 1025 30.27 854 25.22 6.4 43.5 73 2 35.6
06:00 1025 30.27 854 25.22 6.4 43.5 74 2.1 35.7
06:05 1025 30.27 854 25.22 6.3 43.4 74 2.1 35.8
06:10 1025 30.27 854 25.22 6.3 43.4 75 2.2 36
06:15 1025 30.27 854 25.22 6.3 43.4 74 2.1 35.8
06:20 1025 30.27 854 25.22 6.5 43.7 73 2 35.6
06:25 1025 30.27 854 25.22 6.6 43.8 73 2 35.6
06:30 1025 30.27 854 25.22 6.6 43.9 73 2.1 35.8
06:35 1025 30.27 854 25.22 6.5 43.7 74 2.2 36
06:40 1025 30.27 854 25.22 6.5 43.6 74 2.2 36
06:45 1025 30.27 854 25.22 6.4 43.6 74 2.2 36
06:50 1025 30.27 854 25.22 6.5 43.6 75 2.3 36.1
06:55 1025 30.27 854 25.22 6.4 43.5 75 2.2 36
07:00 1025 30.27 854 25.22 6.4 43.6 75 2.3 36.2
07:05 1025 30.27 854 25.22 6.4 43.6 75 2.3 36.2
07:10 1025 30.27 854 25.22 6.4 43.6 75 2.3 36.1
07:15 1025 30.27 854 25.22 6.5 43.7 75 2.3 36.2
07:20 1025 30.27 854 25.22 6.5 43.7 75 2.3 36.2
07:25 1025 30.27 854 25.22 6.5 43.7 75 2.3 36.2
07:30 1025 30.27 854 25.22 6.5 43.8 75 2.4 36.3
07:35 1025 30.27 854 25.22 6.5 43.7 75 2.5 36.4
07:40 1025 30.27 854 25.22 6.4 43.6 75 2.4 36.3
07:45 1025 30.27 854 25.22 6.5 43.7 75 2.4 36.3
07:50 1025 30.27 854 25.22 6.5 43.8 75 2.4 36.3
07:55 1025 30.27 854 25.22 6.6 43.8 74 2.3 36.1
08:00 1025 30.27 854 25.22 6.6 43.9 74 2.3 36.1
08:05 1025 30.27 854 25.22 6.6 43.9 74 2.3 36.1
08:10 1025 30.27 854 25.22 6.7 44 74 2.4 36.3
08:15 1025 30.27 854 25.22 6.7 44 74 2.3 36.2
08:20 1025 30.27 854 25.22 6.7 44.1 74 2.3 36.2
08:25 1025 30.27 854 25.22 6.7 44 74 2.3 36.2
08:30 1025 30.27 854 25.22 6.7 44.1 74 2.4 36.3
08:35 1025 30.27 854 25.22 6.7 44.1 74 2.4 36.4
08:40 1025 30.27 854 25.22 6.7 44.1 74 2.4 36.3
08:45 1025 30.27 854 25.22 6.7 44.1 74 2.5 36.5
08:50 1025 30.27 854 25.22 6.6 43.9 75 2.6 36.7
08:55 1025 30.27 854 25.22 6.5 43.7 76 2.7 36.8
09:00 1025 30.27 854 25.22 6.5 43.7 75 2.4 36.2
09:05 1025 30.27 854 25.22 6.5 43.7 75 2.5 36.4
09:10 1025 30.27 854 25.22 6.5 43.7 75 2.4 36.4
09:15 1025 30.27 854 25.22 6.5 43.7 75 2.4 36.3
09:20 1025 30.27 854 25.22 6.4 43.5 76 2.4 36.4
09:25 1025 30.27 854 25.22 6.5 43.6 75 2.3 36.1
09:30 1025 30.27 854 25.22 6.5 43.7 74 2.2 36
09:35 1025 30.27 854 25.22 6.4 43.6 74 2.2 35.9
09:40 1025 30.27 854 25.22 6.4 43.5 73 2 35.6
09:45 1025 30.27 854 25.22 6.4 43.5 73 1.9 35.4
09:50 1025 30.27 854 25.22 6.3 43.4 74 2 35.6
09:55 1025 30.27 855 25.25 6.2 43.1 75 2 35.7
10:00 1025 30.27 855 25.25 6.1 43 75 2.1 35.7
10:05 1025 30.27 855 25.25 6.2 43.1 75 2.1 35.8
10:10 1025 30.27 855 25.25 6.2 43.2 75 2.1 35.8
10:15 1025 30.27 855 25.25 6.3 43.4 75 2.1 35.8
10:20 1025 30.27 855 25.25 6.4 43.4 74 2 35.6
10:25 1025 30.27 855 25.25 6.4 43.5 74 2.2 35.9
10:30 1025 30.27 855 25.25 6.3 43.3 75 2.1 35.8
10:35 1025 30.27 855 25.25 6.3 43.4 74 2 35.7
10:40 1025 30.27 855 25.25 6.4 43.4 74 2.2 35.9
10:45 1025 30.27 855 25.25 6.3 43.3 74 2.1 35.8
10:50 1025 30.27 854 25.22 6.2 43.2 75 2.1 35.7
10:55 1025 30.27 855 25.25 6.1 43 76 2.1 35.8
11:00 1025 30.27 855 25.25 6.1 43 76 2.2 36
11:05 1025 30.27 855 25.25 6 42.8 75 2 35.6
11:10 1025 30.27 855 25.25 6 42.8 76 2 35.7
11:15 1025 30.27 855 25.25 6 42.7 75 1.9 35.5
11:20 1025 30.27 855 25.25 6 42.7 75 1.9 35.5
11:25 1025 30.27 855 25.25 6.1 42.9 75 1.9 35.5
11:30 1025 30.27 855 25.25 6.1 42.9 75 1.9 35.5
11:35 1025 30.27 855 25.25 6.1 43 74 1.8 35.2
11:40 1025 30.27 855 25.25 6.3 43.3 73 1.7 35.1
11:45 1025 30.27 855 25.25 6.4 43.6 72 1.7 35.1
11:50 1025 30.27 855 25.25 6.5 43.7 72 1.9 35.4
11:55 1025 30.27 855 25.25 6.7 44 72 1.9 35.5
12:00 1025 30.27 855 25.25 6.7 44 71 1.8 35.3
12:05 1025 30.27 855 25.25 6.6 43.8 72 1.9 35.3
12:10 1025 30.27 855 25.25 6.5 43.7 72 1.7 35.1
12:15 1025 30.27 855 25.25 6.5 43.7 72 1.8 35.3
12:20 1025 30.27 855 25.25 6.6 44 71 1.8 35.3
12:25 1025 30.27 855 25.25 6.6 43.9 71 1.8 35.2
12:30 1025 30.27 855 25.25 6.7 44 71 1.7 35.1
12:35 1025 30.27 855 25.25 6.7 44.1 69 1.5 34.8
12:40 1025 30.27 855 25.25 6.8 44.2 69 1.6 34.8
12:45 1025 30.27 854 25.22 6.9 44.4 68 1.4 34.5
12:50 1025 30.27 854 25.22 7 44.6 69 1.6 34.9
12:55 1025 30.27 854 25.22 7 44.7 68 1.5 34.7
13:00 1025 30.27 854 25.22 6.9 44.4 68 1.4 34.4
13:05 1025 30.27 854 25.22 7.1 44.7 66 1.2 34.2
13:10 1025 30.27 854 25.22 7 44.6 67 1.3 34.3
13:15 1025 30.27 854 25.22 7 44.6 67 1.3 34.4
13:20 1025 30.27 854 25.22 7 44.5 68 1.4 34.5
13:25 1025 30.27 854 25.22 6.8 44.3 71 2 35.7
13:30 1025 30.27 854 25.22 6.7 44 72 2.1 35.7
13:35 1025 30.27 854 25.22 6.5 43.6 75 2.3 36.1
13:40 1025 30.27 854 25.22 6.2 43.1 76 2.2 36
13:45 1025 30.27 854 25.22 6.2 43.1 77 2.4 36.3
13:50 1025 30.27 854 25.22 6.2 43.2 75 2.1 35.8
13:55 1025 30.27 854 25.22 6.1 43 76 2.2 36
14:00 1025 30.27 854 25.22 6.1 43 78 2.5 36.5
14:05 1025 30.27 854 25.22 6.1 42.9 77 2.3 36.2
14:10 1025 30.27 854 25.22 6.2 43.1 76 2.2 36
14:15 1025 30.27 854 25.22 6.3 43.3 76 2.4 36.3
14:20 1025 30.27 854 25.22 6.4 43.5 74 2.1 35.8
14:25 1025 30.27 854 25.22 6.5 43.6 73 2 35.7
14:30 1025 30.27 854 25.22 6.5 43.8 76 2.5 36.6
14:35 1025 30.27 854 25.22 6.8 44.2 76 2.9 37.2
14:40 1025 30.27 854 25.22 6.8 44.3 74 2.6 36.7
14:45 1025 30.27 854 25.22 7 44.6 74 2.6 36.7
14:50 1025 30.27 854 25.22 7 44.6 72 2.3 36.1
14:55 1025 30.27 854 25.22 7 44.5 72 2.3 36.2
15:00 1025 30.27 854 25.22 7.1 44.7 71 2.3 36.1
15:05 1025 30.27 854 25.22 7 44.6 73 2.5 36.4
15:10 1025 30.27 854 25.22 7.1 44.7 71 2.2 35.9
15:15 1025 30.27 854 25.22 7 44.5 71 2.1 35.8
15:20 1025 30.27 854 25.22 6.9 44.4 71 2.1 35.7
15:25 1025 30.27 854 25.22 6.9 44.3 70 1.8 35.3
15:30 1025 30.27 854 25.22 6.8 44.3 70 1.8 35.3
15:35 1025 30.27 854 25.22 6.9 44.4 70 1.8 35.3
15:40 1025 30.27 854 25.22 6.9 44.4 71 2 35.6
15:45 1025 30.27 854 25.22 6.9 44.4 71 2.1 35.8
15:50 1025 30.27 854 25.22 6.9 44.4 71 1.9 35.5
15:55 1025 30.27 854 25.22 7 44.5 71 2.2 35.9
16:00 1025 30.27 854 25.22 7 44.6 72 2.2 36
16:05 1025 30.27 854 25.22 7.1 44.7 71 2.1 35.8
16:10 1025 30.27 854 25.22 7 44.6 72 2.2 36
16:15 1025 30.27 854 25.22 6.9 44.5 72 2.2 35.9
16:20 1025 30.27 854 25.22 6.9 44.3 72 2.1 35.8
16:25 1025 30.27 854 25.22 6.9 44.4 72 2.3 36.1
16:30 1025 30.27 854 25.22 6.9 44.5 73 2.4 36.2
16:35 1025 30.27 854 25.22 7 44.5 73 2.5 36.6
16:40 1025 30.27 854 25.22 6.9 44.4 75 2.8 37
16:45 1025 30.27 854 25.22 6.9 44.4 74 2.6 36.7
16:50 1025 30.27 854 25.22 6.9 44.5 73 2.4 36.4
16:55 1025 30.27 854 25.22 6.9 44.5 72 2.3 36.2
17:00 1025 30.27 854 25.22 7 44.6 73 2.4 36.4
17:05 1025 30.27 854 25.22 6.9 44.5 73 2.4 36.2
17:10 1025 30.27 854 25.22 6.9 44.5 73 2.5 36.5
17:15 1025 30.27 854 25.22 6.9 44.4 73 2.4 36.3
17:20 1025 30.27 854 25.22 6.7 44 74 2.3 36.2
17:25 1025 30.27 854 25.22 6.7 44 74 2.5 36.4
17:30 1025 30.27 854 25.22 6.8 44.2 74 2.5 36.5
17:35 1025 30.27 854 25.22 6.7 44.1 74 2.4 36.3
17:40 1024 30.24 854 25.22 6.8 44.2 73 2.3 36.1
17:45 1024 30.24 854 25.22 6.9 44.4 74 2.6 36.6
17:50 1024 30.24 854 25.22 6.9 44.4 74 2.5 36.6
17:55 1024 30.24 854 25.22 6.8 44.3 74 2.6 36.7
18:00 1024 30.24 853 25.19 6.9 44.3 75 2.7 36.8
18:05 1024 30.24 853 25.19 6.8 44.2 76 2.8 37.1
18:10 1024 30.24 853 25.19 6.7 44 76 2.8 37.1
18:15 1024 30.24 853 25.19 6.7 44 77 3 37.4
18:20 1024 30.24 853 25.19 6.7 44.1 76 2.9 37.2
18:25 1024 30.24 853 25.19 6.6 43.9 78 3.1 37.6
18:30 1024 30.24 853 25.19 6.5 43.7 79 3.1 37.6
18:35 1024 30.24 853 25.19 6.4 43.5 80 3.2 37.8
18:40 1024 30.24 853 25.19 6.2 43.2 82 3.4 38.1
18:45 1024 30.24 853 25.19 6.3 43.3 83 3.6 38.5
18:50 1024 30.24 853 25.19 6.2 43.1 82 3.4 38.1
18:55 1024 30.24 853 25.19 6.2 43.1 83 3.5 38.2
19:00 1024 30.24 853 25.19 6 42.9 84 3.5 38.3
19:05 1024 30.24 853 25.19 6 42.7 84 3.4 38.2
19:10 1024 30.24 853 25.19 6 42.7 84 3.4 38.1
19:15 1024 30.24 853 25.19 6 42.7 85 3.6 38.4
19:20 1024 30.24 853 25.19 5.9 42.7 84 3.5 38.3
19:25 1024 30.24 853 25.19 5.9 42.6 85 3.6 38.5
19:30 1024 30.24 853 25.19 5.8 42.5 86 3.6 38.5
19:35 1024 30.24 853 25.19 5.9 42.5 84 3.4 38
19:40 1024 30.24 853 25.19 5.9 42.6 85 3.5 38.3
19:45 1024 30.24 853 25.19 5.9 42.6 83 3.3 37.9
19:50 1024 30.24 853 25.19 5.9 42.6 84 3.4 38.2
19:55 1024 30.24 853 25.19 5.9 42.6 83 3.3 37.9
20:00 1024 30.24 853 25.19 5.9 42.7 83 3.3 37.9
20:05 1024 30.24 853 25.19 5.9 42.7 84 3.4 38.1
20:10 1024 30.24 853 25.19 5.9 42.5 84 3.3 38
20:15 1024 30.24 853 25.19 5.8 42.5 84 3.2 37.8
20:20 1024 30.24 853 25.19 5.8 42.4 85 3.4 38.1
20:25 1024 30.24 853 25.19 5.7 42.3 84 3.3 37.9
20:30 1024 30.24 853 25.19 5.7 42.3 85 3.3 38
20:35 1024 30.24 853 25.19 5.8 42.4 84 3.2 37.8
20:40 1024 30.24 853 25.19 5.8 42.4 83 3.2 37.7
20:45 1024 30.24 853 25.19 5.8 42.4 83 3.1 37.5
20:50 1024 30.24 853 25.19 5.7 42.3 84 3.2 37.7
20:55 1024 30.24 853 25.19 5.7 42.3 83 3.1 37.6
21:00 1024 30.24 853 25.19 5.8 42.4 84 3.3 37.9
21:05 1024 30.24 853 25.19 5.7 42.3 83 3.1 37.6
21:10 1024 30.24 853 25.19 5.7 42.3 84 3.2 37.7
21:15 1024 30.24 853 25.19 5.7 42.2 83 3 37.5
21:20 1024 30.24 853 25.19 5.7 42.3 83 3.1 37.7
21:25 1024 30.24 853 25.19 5.7 42.3 83 3.2 37.7
21:30 1024 30.24 853 25.19 5.7 42.3 84 3.2 37.8
21:35 1024 30.24 853 25.19 5.7 42.3 82 3 37.3
21:40 1024 30.24 853 25.19 5.8 42.4 82 3 37.5
21:45 1024 30.24 853 25.19 5.8 42.5 83 3.1 37.6
21:50 1024 30.24 853 25.19 5.8 42.4 83 3 37.5
21:55 1024 30.24 853 25.19 5.8 42.4 82 2.9 37.3
22:00 1024 30.24 853 25.19 5.8 42.4 83 3.1 37.5
22:05 1024 30.24 853 25.19 5.7 42.3 83 3.1 37.5
22:10 1024 30.24 853 25.19 5.7 42.2 84 3.1 37.6
22:15 1024 30.24 853 25.19 5.6 42.1 86 3.4 38.1
22:20 1024 30.24 854 25.22 5.5 41.9 85 3.2 37.8
22:25 1024 30.24 854 25.22 5.5 41.9 85 3.2 37.8
22:30 1024 30.24 854 25.22 5.5 41.9 86 3.4 38
22:35 1024 30.24 854 25.22 5.4 41.8 87 3.4 38.1
22:40 1024 30.24 853 25.19 5.4 41.8 86 3.2 37.8
22:45 1024 30.24 853 25.19 5.4 41.8 86 3.3 38
22:50 1024 30.24 853 25.19 5.4 41.7 87 3.4 38.1
22:55 1024 30.24 853 25.19 5.4 41.7 86 3.3 37.9
23:00 1024 30.24 853 25.19 5.4 41.7 87 3.5 38.2
23:05 1024 30.24 853 25.19 5.3 41.6 87 3.3 38
23:10 1024 30.24 853 25.19 5.3 41.6 88 3.5 38.2
23:15 1024 30.24 853 25.19 5.3 41.6 88 3.4 38.2
23:20 1024 30.24 853 25.19 5.3 41.5 88 3.5 38.2
23:25 1024 30.24 853 25.19 5.3 41.5 88 3.5 38.2
23:30 1024 30.24 853 25.19 5.3 41.5 88 3.4 38.1
23:35 1024 30.24 853 25.19 5.3 41.5 88 3.5 38.2
23:40 1024 30.24 853 25.19 5.3 41.5 88 3.4 38.2
23:45 1024 30.24 853 25.19 5.3 41.5 89 3.6 38.4
23:50 1024 30.24 853 25.19 5.3 41.5 88 3.4 38.2
23:55 1024 30.24 853 25.19 5.3 41.5 89 3.6 38.5
24:00 1024 30.24 853 25.19 5.3 41.5 87 3.3 37.9